createdAt,value
2022-08-16T00:02:44.301Z,27.60
2022-08-16T00:05:49.016Z,27.59
2022-08-16T00:08:52.446Z,27.58
2022-08-16T00:11:55.363Z,27.60
2022-08-16T00:15:00.020Z,27.55
2022-08-16T00:18:02.728Z,27.53
2022-08-16T00:21:09.104Z,27.51
2022-08-16T00:24:12.314Z,27.45
2022-08-16T00:27:15.088Z,27.40
2022-08-16T00:30:25.969Z,27.37
2022-08-16T00:33:31.146Z,27.31
2022-08-16T00:36:35.005Z,27.27
2022-08-16T00:39:37.115Z,27.23
2022-08-16T00:42:41.444Z,27.23
2022-08-16T00:46:00.460Z,27.26
2022-08-16T00:49:17.292Z,27.26
2022-08-16T00:52:29.472Z,27.22
2022-08-16T00:55:37.961Z,27.27
2022-08-16T00:58:44.061Z,27.30
2022-08-16T01:01:46.130Z,27.28
2022-08-16T01:05:04.650Z,27.20
2022-08-16T01:08:34.874Z,27.28
2022-08-16T01:11:37.531Z,27.28
2022-08-16T01:15:00.355Z,27.24
2022-08-16T01:18:05.871Z,27.23
2022-08-16T01:21:39.888Z,27.23
2022-08-16T01:24:53.840Z,27.19
2022-08-16T01:28:01.428Z,27.17
2022-08-16T01:31:08.337Z,27.15
2022-08-16T01:34:22.657Z,27.09
2022-08-16T01:37:27.751Z,27.03
2022-08-16T01:40:38.122Z,27.00
2022-08-16T01:43:42.765Z,27.00
2022-08-16T01:46:48.300Z,26.94
2022-08-16T01:50:43.557Z,26.93
2022-08-16T01:53:16.072Z,26.87
2022-08-16T01:56:36.813Z,26.83
2022-08-16T01:59:39.856Z,26.76
2022-08-16T02:02:52.403Z,26.79
2022-08-16T02:05:56.202Z,26.76
2022-08-16T02:08:59.466Z,26.68
2022-08-16T02:12:49.559Z,26.68
2022-08-16T02:15:37.887Z,26.64
2022-08-16T02:18:47.113Z,26.57
2022-08-16T02:22:07.749Z,26.53
2022-08-16T02:25:14.848Z,26.41
2022-08-16T02:28:19.388Z,26.39
2022-08-16T02:31:22.402Z,26.38
2022-08-16T02:34:44.928Z,26.30
2022-08-16T02:37:52.289Z,26.32
2022-08-16T02:40:57.911Z,26.28
2022-08-16T02:44:01.801Z,26.26
2022-08-16T02:47:04.220Z,26.25
2022-08-16T02:50:54.530Z,26.23
2022-08-16T02:53:29.398Z,26.17
2022-08-16T02:56:32.959Z,26.18
2022-08-16T02:59:41.308Z,26.14
2022-08-16T03:02:45.354Z,26.10
2022-08-16T03:05:52.575Z,26.08
2022-08-16T03:08:56.874Z,25.99
2022-08-16T03:12:03.531Z,25.95
2022-08-16T03:15:10.743Z,25.94
2022-08-16T03:18:34.753Z,25.89
2022-08-16T03:21:38.805Z,25.82
2022-08-16T03:24:44.715Z,25.80
2022-08-16T03:27:46.862Z,25.76
2022-08-16T03:30:52.735Z,25.75
2022-08-16T03:33:57.870Z,25.75
2022-08-16T03:37:00.688Z,25.73
2022-08-16T03:40:04.802Z,25.73
2022-08-16T03:43:20.436Z,25.72
2022-08-16T03:46:48.427Z,25.72
2022-08-16T03:49:51.916Z,25.66
2022-08-16T03:53:01.284Z,25.65
2022-08-16T03:56:19.511Z,25.62
2022-08-16T03:59:24.393Z,25.58
2022-08-16T04:02:31.671Z,25.58
2022-08-16T04:05:44.183Z,25.53
2022-08-16T04:08:48.218Z,25.48
2022-08-16T04:11:50.158Z,25.41
2022-08-16T04:14:54.725Z,25.39
2022-08-16T04:18:00.871Z,25.33
2022-08-16T04:21:06.205Z,25.13
2022-08-16T04:24:08.269Z,24.88
2022-08-16T04:27:11.689Z,24.67
2022-08-16T04:30:32.115Z,24.53
2022-08-16T04:33:37.644Z,24.39
2022-08-16T04:36:57.469Z,24.32
2022-08-16T04:39:59.660Z,24.27
2022-08-16T04:43:08.187Z,24.28
2022-08-16T04:47:00.992Z,24.22
2022-08-16T04:49:43.801Z,24.13
2022-08-16T04:52:51.134Z,24.07
2022-08-16T04:55:57.883Z,23.98
2022-08-16T04:59:01.573Z,23.87
2022-08-16T05:02:03.700Z,23.74
2022-08-16T05:05:30.681Z,23.61
2022-08-16T05:08:39.619Z,23.51
2022-08-16T05:11:57.162Z,23.52
2022-08-16T05:15:03.066Z,23.55
2022-08-16T05:18:15.880Z,23.61
2022-08-16T05:21:36.020Z,23.62
2022-08-16T05:24:43.826Z,23.65
2022-08-16T05:27:46.500Z,23.68
2022-08-16T05:30:52.566Z,23.70
2022-08-16T05:34:00.687Z,23.83
2022-08-16T05:37:02.993Z,23.83
2022-08-16T05:40:13.190Z,23.87
2022-08-16T05:43:16.817Z,23.94
2022-08-16T05:46:30.446Z,23.98
2022-08-16T05:49:43.810Z,24.07
2022-08-16T05:52:47.478Z,24.17
2022-08-16T05:55:50.794Z,24.30
2022-08-16T05:58:53.853Z,24.39
2022-08-16T06:01:55.974Z,24.43
2022-08-16T06:05:06.405Z,24.60
2022-08-16T06:08:32.542Z,24.69
2022-08-16T06:11:38.247Z,24.73
2022-08-16T06:14:45.368Z,24.78
2022-08-16T06:17:47.498Z,24.84
2022-08-16T06:20:57.733Z,25.05
2022-08-16T06:24:02.967Z,25.19
2022-08-16T06:27:25.638Z,25.27
2022-08-16T06:30:44.125Z,25.41
2022-08-16T06:34:56.649Z,25.44
2022-08-16T06:38:32.428Z,25.46
2022-08-16T06:41:39.819Z,25.54
2022-08-16T06:44:53.665Z,25.61
2022-08-16T06:48:11.426Z,25.66
2022-08-16T06:51:14.815Z,25.69
2022-08-16T06:54:17.783Z,25.68
2022-08-16T06:57:21.783Z,25.62
2022-08-16T07:00:25.649Z,25.54
2022-08-16T07:03:55.154Z,25.33
2022-08-16T07:07:03.560Z,25.33
2022-08-16T07:10:10.213Z,25.24
2022-08-16T07:13:19.809Z,25.13
2022-08-16T07:16:34.906Z,25.15
2022-08-16T07:20:03.290Z,25.09
2022-08-16T07:23:13.362Z,25.18
2022-08-16T07:26:27.699Z,25.26
2022-08-16T07:29:32.948Z,25.38
2022-08-16T07:32:35.995Z,25.50
2022-08-16T07:35:44.216Z,25.65
2022-08-16T07:38:49.240Z,25.81
2022-08-16T07:41:53.085Z,25.86
2022-08-16T07:44:55.525Z,25.88
2022-08-16T07:47:59.991Z,25.94
2022-08-16T07:51:16.679Z,26.02
2022-08-16T07:54:21.481Z,25.96
2022-08-16T07:57:58.005Z,26.07
2022-08-16T08:01:01.936Z,26.25
2022-08-16T08:04:07.857Z,26.28
2022-08-16T08:07:16.958Z,26.34
2022-08-16T08:10:29.747Z,26.37
2022-08-16T08:13:41.688Z,26.42
2022-08-16T08:16:47.611Z,26.53
2022-08-16T08:19:59.571Z,26.64
2022-08-16T08:23:02.864Z,27.07
2022-08-16T08:26:17.484Z,27.39
2022-08-16T08:29:23.004Z,27.67
2022-08-16T08:32:57.572Z,27.94
2022-08-16T08:36:07.694Z,27.90
2022-08-16T08:39:12.665Z,27.88
2022-08-16T08:42:26.607Z,27.84
2022-08-16T08:45:48.415Z,27.61
2022-08-16T08:48:59.185Z,27.48
2022-08-16T08:52:08.142Z,27.37
2022-08-16T08:55:14.312Z,27.31
2022-08-16T08:58:18.097Z,27.23
2022-08-16T09:01:42.888Z,27.24
2022-08-16T09:04:58.685Z,27.34
2022-08-16T09:08:05.628Z,27.41
2022-08-16T09:11:40.649Z,27.47
2022-08-16T09:14:51.221Z,27.55
2022-08-16T09:17:59.113Z,27.56
2022-08-16T09:21:04.607Z,27.31
2022-08-16T09:24:09.961Z,27.28
2022-08-16T09:27:17.158Z,27.20
2022-08-16T09:30:34.592Z,27.20
2022-08-16T09:33:39.589Z,27.22
2022-08-16T09:36:45.990Z,27.30
2022-08-16T09:39:50.455Z,27.28
2022-08-16T09:42:59.369Z,27.25
2022-08-16T09:46:04.499Z,27.21
2022-08-16T09:49:36.904Z,27.28
2022-08-16T09:52:44.102Z,27.33
2022-08-16T09:55:53.746Z,27.25
2022-08-16T09:59:03.872Z,27.13
2022-08-16T10:02:26.607Z,27.00
2022-08-16T10:05:29.815Z,26.87
2022-08-16T10:09:04.170Z,26.85
2022-08-16T10:12:17.940Z,26.81
2022-08-16T10:15:21.941Z,26.82
2022-08-16T10:18:56.401Z,26.72
2022-08-16T10:21:46.648Z,26.59
2022-08-16T10:24:59.913Z,26.48
2022-08-16T10:28:27.840Z,26.45
2022-08-16T10:31:44.264Z,26.29
2022-08-16T10:34:48.393Z,26.38
2022-08-16T10:37:54.328Z,26.35
2022-08-16T10:40:56.320Z,26.33
2022-08-16T10:43:59.313Z,26.39
2022-08-16T10:47:02.349Z,26.47
2022-08-16T10:50:07.341Z,26.60
2022-08-16T10:53:21.869Z,26.65
2022-08-16T10:56:49.479Z,26.67
2022-08-16T10:59:53.248Z,26.77
2022-08-16T11:03:02.513Z,26.83
2022-08-16T11:06:11.981Z,26.86
2022-08-16T11:09:25.353Z,26.90
2022-08-16T11:12:28.613Z,26.93
2022-08-16T11:15:31.489Z,27.02
2022-08-16T11:19:04.530Z,27.16
2022-08-16T11:22:38.805Z,27.25
2022-08-16T11:32:12.756Z,27.48
2022-08-16T11:38:56.999Z,27.42
2022-08-16T11:41:59.953Z,27.46
2022-08-16T11:45:01.911Z,27.34
2022-08-16T11:48:05.682Z,27.17
2022-08-16T11:51:07.688Z,27.12
2022-08-16T11:54:20.395Z,27.09
2022-08-16T11:57:23.891Z,27.06
2022-08-16T12:00:34.240Z,27.05
2022-08-16T12:03:50.437Z,27.04
2022-08-16T12:06:54.510Z,26.92
2022-08-16T12:09:57.167Z,26.97
2022-08-16T12:13:02.853Z,27.00
2022-08-16T12:16:08.069Z,26.97
2022-08-16T12:19:13.785Z,27.01
2022-08-16T12:22:19.245Z,26.99
2022-08-16T12:25:25.772Z,26.90
2022-08-16T12:28:54.290Z,26.82
2022-08-16T12:32:01.317Z,26.73
2022-08-16T12:35:19.467Z,26.72
2022-08-16T12:38:41.174Z,26.66
2022-08-16T12:41:46.409Z,26.66
2022-08-16T12:44:50.398Z,26.66
2022-08-16T12:48:33.288Z,26.62
2022-08-16T12:51:59.439Z,26.66
2022-08-16T12:54:59.407Z,26.66
2022-08-16T12:58:01.472Z,26.69
2022-08-16T13:01:04.942Z,26.70
2022-08-16T13:04:20.558Z,26.71
2022-08-16T13:07:27.122Z,26.65
2022-08-16T13:10:37.249Z,26.59
2022-08-16T13:13:39.599Z,26.43
2022-08-16T13:16:42.430Z,26.33
2022-08-16T13:23:11.599Z,26.32
2022-08-16T13:26:18.192Z,26.27
2022-08-16T13:29:20.056Z,26.18
2022-08-16T13:32:40.012Z,26.25
2022-08-16T13:35:45.059Z,26.26
2022-08-16T13:38:49.338Z,26.25
2022-08-16T13:41:53.794Z,26.26
2022-08-16T13:44:58.593Z,26.26
2022-08-16T13:48:02.375Z,26.30
2022-08-16T13:51:07.562Z,26.37
2022-08-16T13:54:09.710Z,26.42
2022-08-16T13:57:11.982Z,26.50
2022-08-16T14:00:19.578Z,26.58
2022-08-16T14:03:23.997Z,26.66
2022-08-16T14:06:26.255Z,26.70
2022-08-16T14:09:32.014Z,26.68
2022-08-16T14:12:35.803Z,26.66
2022-08-16T14:15:38.123Z,26.61
2022-08-16T14:18:44.013Z,26.59
2022-08-16T14:21:56.743Z,26.61
2022-08-16T14:25:16.284Z,26.63
2022-08-16T14:28:20.560Z,26.65
2022-08-16T14:31:27.883Z,26.71
2022-08-16T14:34:30.366Z,26.75
2022-08-16T14:37:35.754Z,26.77
2022-08-16T14:40:37.869Z,26.77
2022-08-16T14:43:40.184Z,26.78
2022-08-16T14:46:42.560Z,26.74
2022-08-16T14:49:44.519Z,26.68
2022-08-16T14:52:56.699Z,26.74
2022-08-16T14:55:59.621Z,26.74
2022-08-16T14:59:01.541Z,26.73
2022-08-16T15:02:06.316Z,26.74
2022-08-16T15:05:12.575Z,26.72
2022-08-16T15:08:20.285Z,26.75
2022-08-16T15:11:22.428Z,26.77
2022-08-16T15:14:24.193Z,26.74
2022-08-16T15:17:27.688Z,26.78
2022-08-16T15:20:36.784Z,26.78
2022-08-16T15:23:41.301Z,26.75
2022-08-16T15:26:45.150Z,26.66
2022-08-16T15:29:49.028Z,26.68
2022-08-16T15:33:03.026Z,26.61
2022-08-16T15:36:07.797Z,26.61
2022-08-16T15:39:30.417Z,26.56
2022-08-16T15:42:31.868Z,26.49
2022-08-16T15:45:56.676Z,26.49
2022-08-16T15:48:58.569Z,26.45
2022-08-16T15:52:01.426Z,26.44
2022-08-16T15:55:12.899Z,26.42
2022-08-16T15:58:35.612Z,26.37
2022-08-16T16:01:40.651Z,26.33
2022-08-16T16:04:42.586Z,26.28
2022-08-16T16:07:55.493Z,26.27
2022-08-16T16:11:03.153Z,26.23
2022-08-16T16:14:06.267Z,26.15
2022-08-16T16:17:13.426Z,26.11
2022-08-16T16:20:20.116Z,26.09
2022-08-16T16:23:27.435Z,26.06
2022-08-16T16:26:31.485Z,26.01
2022-08-16T16:29:37.191Z,25.99
2022-08-16T16:32:47.472Z,25.95
2022-08-16T16:35:55.458Z,25.95
2022-08-16T16:39:04.468Z,26.10
2022-08-16T16:42:06.853Z,26.16
2022-08-16T16:45:33.315Z,26.32
2022-08-16T16:48:37.436Z,26.37
2022-08-16T16:51:41.229Z,26.33
2022-08-16T16:54:49.233Z,26.30
2022-08-16T16:58:17.986Z,26.39
2022-08-16T17:01:56.592Z,26.51
2022-08-16T17:04:55.684Z,26.63
2022-08-16T17:08:02.028Z,26.65
2022-08-16T17:11:04.225Z,26.63
2022-08-16T17:14:27.537Z,26.65
2022-08-16T17:17:36.203Z,26.65
2022-08-16T17:20:55.964Z,26.68
2022-08-16T17:24:00.444Z,26.72
2022-08-16T17:27:04.048Z,26.73
2022-08-16T17:30:16.097Z,26.66
2022-08-16T17:33:21.833Z,26.65
2022-08-16T17:36:36.631Z,26.58
2022-08-16T17:39:59.258Z,26.58
2022-08-16T17:43:02.284Z,26.45
2022-08-16T17:46:06.815Z,26.32
2022-08-16T17:49:28.777Z,26.20
2022-08-16T17:52:31.825Z,26.02
2022-08-16T17:55:39.601Z,26.13
2022-08-16T17:58:42.304Z,26.18
2022-08-16T18:01:44.656Z,26.19
2022-08-16T18:04:49.824Z,26.20
2022-08-16T18:07:52.811Z,26.19
2022-08-16T18:10:58.634Z,26.10
2022-08-16T18:14:06.419Z,26.04
2022-08-16T18:17:08.629Z,26.06
2022-08-16T18:20:32.584Z,26.07
2022-08-16T18:23:35.240Z,26.06
2022-08-16T18:26:40.427Z,26.03
2022-08-16T18:29:43.661Z,25.99
2022-08-16T18:32:50.469Z,26.01
2022-08-16T18:35:57.573Z,25.95
2022-08-16T18:38:59.975Z,25.90
2022-08-16T18:42:14.656Z,25.84
2022-08-16T18:45:18.266Z,25.82
2022-08-16T18:48:21.942Z,25.82
2022-08-16T18:51:25.404Z,25.77
2022-08-16T18:54:29.835Z,25.73
2022-08-16T18:57:31.914Z,25.69
2022-08-16T19:00:45.850Z,25.64
2022-08-16T19:03:59.286Z,25.64
2022-08-16T19:07:01.180Z,25.58
2022-08-16T19:10:06.532Z,25.53
2022-08-16T19:13:15.208Z,25.52
2022-08-16T19:16:17.303Z,25.54
2022-08-16T19:19:23.925Z,25.45
2022-08-16T19:22:52.367Z,25.32
2022-08-16T19:26:00.132Z,25.24
2022-08-16T19:29:03.342Z,25.16
2022-08-16T19:32:28.900Z,25.20
2022-08-16T19:35:30.864Z,25.17
2022-08-16T19:38:33.341Z,25.14
2022-08-16T19:41:38.408Z,25.15
2022-08-16T19:44:41.629Z,25.10
2022-08-16T19:47:45.443Z,24.96
2022-08-16T19:50:47.514Z,24.97
2022-08-16T19:53:53.092Z,24.95
2022-08-16T19:56:57.126Z,25.00
2022-08-16T19:59:59.496Z,24.88
2022-08-16T20:03:01.766Z,24.86
2022-08-16T20:06:04.135Z,24.90
2022-08-16T20:09:06.759Z,24.80
2022-08-16T20:12:21.101Z,24.82
2022-08-16T20:15:29.991Z,24.82
2022-08-16T20:18:33.216Z,24.83
2022-08-16T20:21:48.304Z,24.59
2022-08-16T20:24:51.247Z,24.53
2022-08-16T20:28:02.690Z,24.54
2022-08-16T20:31:04.599Z,24.49
2022-08-16T20:34:06.934Z,24.46
2022-08-16T20:37:24.178Z,24.30
2022-08-16T20:40:33.832Z,24.12
2022-08-16T20:43:43.713Z,23.97
2022-08-16T20:46:55.682Z,23.95
2022-08-16T20:49:57.695Z,23.86
2022-08-16T20:53:00.274Z,23.87
2022-08-16T20:56:02.749Z,23.96
2022-08-16T20:59:04.677Z,24.00
2022-08-16T21:02:16.333Z,24.05
2022-08-16T21:05:31.752Z,24.07
2022-08-16T21:08:51.731Z,24.10
2022-08-16T21:11:57.176Z,24.14
2022-08-16T21:15:07.495Z,24.13
2022-08-16T21:18:09.891Z,24.10
2022-08-16T21:21:12.710Z,24.11
2022-08-16T21:24:15.409Z,24.07
2022-08-16T21:27:18.685Z,24.06
2022-08-16T21:30:27.976Z,24.11
2022-08-16T21:33:34.218Z,24.13
2022-08-16T21:36:36.733Z,24.14
2022-08-16T21:39:39.334Z,24.14
2022-08-16T21:42:42.872Z,24.14
2022-08-16T21:45:45.431Z,24.12
2022-08-16T21:48:47.302Z,24.11
2022-08-16T21:51:49.249Z,24.16
2022-08-16T21:54:56.402Z,24.19
2022-08-16T21:57:58.647Z,24.12
2022-08-16T22:01:04.231Z,24.16
2022-08-16T22:04:37.482Z,23.81
2022-08-16T22:07:28.284Z,23.46
2022-08-16T22:11:05.756Z,23.22
2022-08-16T22:13:58.995Z,23.02
2022-08-16T22:17:03.952Z,22.89
2022-08-16T22:20:07.696Z,22.82
2022-08-16T22:23:14.133Z,22.74
2022-08-16T22:26:16.343Z,22.68
2022-08-16T22:29:18.140Z,22.57
2022-08-16T22:32:20.102Z,22.54
2022-08-16T22:35:22.060Z,22.51
2022-08-16T22:38:54.551Z,22.48
2022-08-16T22:41:52.125Z,22.43
2022-08-16T22:44:54.135Z,22.41
2022-08-16T22:47:56.245Z,22.38
2022-08-16T22:50:58.145Z,22.34
2022-08-16T22:54:00.364Z,22.35
2022-08-16T22:57:22.830Z,22.33
2022-08-16T23:00:27.501Z,22.31
2022-08-16T23:03:29.422Z,22.28
2022-08-16T23:06:31.340Z,22.26
2022-08-16T23:09:33.363Z,22.25
2022-08-16T23:12:50.206Z,22.24
2022-08-16T23:16:11.110Z,22.23
2022-08-16T23:19:15.423Z,22.15
2022-08-16T23:22:17.297Z,22.09
2022-08-16T23:25:24.216Z,22.05
2022-08-16T23:28:31.202Z,21.99
2022-08-16T23:31:33.293Z,21.92
2022-08-16T23:34:35.104Z,21.79
2022-08-16T23:37:37.187Z,21.66
2022-08-16T23:40:39.856Z,21.59
2022-08-16T23:43:44.172Z,21.52
2022-08-16T23:46:47.872Z,21.39
2022-08-16T23:50:00.891Z,21.36
2022-08-16T23:53:06.631Z,21.30
2022-08-16T23:56:21.582Z,21.27
2022-08-16T23:59:23.500Z,21.17
